createdAt,value
2022-10-23T00:02:21.220Z,100.00
2022-10-23T00:04:50.967Z,100.00
2022-10-23T00:07:19.143Z,100.00
2022-10-23T00:09:52.846Z,100.00
2022-10-23T00:12:20.929Z,100.00
2022-10-23T00:14:49.916Z,100.00
2022-10-23T00:17:17.607Z,100.00
2022-10-23T00:19:45.222Z,100.00
2022-10-23T00:22:13.111Z,100.00
2022-10-23T00:24:40.907Z,100.00
2022-10-23T00:27:08.962Z,100.00
2022-10-23T00:29:36.629Z,100.00
2022-10-23T00:32:05.876Z,100.00
2022-10-23T00:34:33.561Z,100.00
2022-10-23T00:37:01.336Z,100.00
2022-10-23T00:39:29.349Z,100.00
2022-10-23T00:41:57.119Z,100.00
2022-10-23T00:45:02.376Z,100.00
2022-10-23T00:47:31.470Z,100.00
2022-10-23T00:49:59.074Z,100.00
2022-10-23T00:52:27.878Z,100.00
2022-10-23T00:54:57.095Z,100.00
2022-10-23T00:57:25.157Z,100.00
2022-10-23T00:59:53.229Z,100.00
2022-10-23T01:02:20.970Z,100.00
2022-10-23T01:04:51.272Z,100.00
2022-10-23T01:07:26.949Z,100.00
2022-10-23T01:10:00.000Z,100.00
2022-10-23T01:12:35.366Z,100.00
2022-10-23T01:15:14.121Z,100.00
2022-10-23T01:17:45.825Z,100.00
2022-10-23T01:20:31.653Z,100.00
2022-10-23T01:23:39.097Z,100.00
2022-10-23T01:26:18.582Z,100.00
2022-10-23T01:28:53.112Z,100.00
2022-10-23T01:31:27.942Z,100.00
2022-10-23T01:33:59.939Z,100.00
2022-10-23T01:36:32.076Z,100.00
2022-10-23T01:39:06.046Z,100.00
2022-10-23T01:41:40.245Z,100.00
2022-10-23T01:44:14.725Z,100.00
2022-10-23T01:46:44.376Z,100.00
2022-10-23T01:49:14.104Z,100.00
2022-10-23T01:51:46.911Z,100.00
2022-10-23T01:54:19.391Z,100.00
2022-10-23T01:56:50.440Z,100.00
2022-10-23T01:59:24.451Z,100.00
2022-10-23T02:01:56.182Z,100.00
2022-10-23T02:04:30.712Z,100.00
2022-10-23T02:06:58.702Z,100.00
2022-10-23T02:09:27.039Z,100.00
2022-10-23T02:11:59.960Z,100.00
2022-10-23T02:14:38.100Z,100.00
2022-10-23T02:17:15.034Z,100.00
2022-10-23T02:19:53.387Z,100.00
2022-10-23T02:22:26.487Z,100.00
2022-10-23T02:24:58.467Z,100.00
2022-10-23T02:27:30.636Z,100.00
2022-10-23T02:30:04.896Z,100.00
2022-10-23T02:32:34.347Z,100.00
2022-10-23T02:35:02.826Z,100.00
2022-10-23T02:37:30.890Z,100.00
2022-10-23T02:39:58.900Z,100.00
2022-10-23T02:42:31.029Z,100.00
2022-10-23T02:45:06.877Z,100.00
2022-10-23T02:47:46.832Z,100.00
2022-10-23T02:50:27.158Z,100.00
2022-10-23T02:53:04.516Z,100.00
2022-10-23T02:55:44.184Z,100.00
2022-10-23T02:58:20.657Z,100.00
2022-10-23T03:00:55.396Z,100.00
2022-10-23T03:03:27.300Z,100.00
2022-10-23T03:05:55.225Z,100.00
2022-10-23T03:08:23.442Z,100.00
2022-10-23T03:10:51.118Z,100.00
2022-10-23T03:13:19.375Z,100.00
2022-10-23T03:15:49.353Z,100.00
2022-10-23T03:18:17.034Z,100.00
2022-10-23T03:20:45.964Z,100.00
2022-10-23T03:23:14.029Z,100.00
2022-10-23T03:25:41.625Z,100.00
2022-10-23T03:28:09.205Z,100.00
2022-10-23T03:30:37.535Z,100.00
2022-10-23T03:33:06.516Z,100.00
2022-10-23T03:35:34.448Z,100.00
2022-10-23T03:38:02.347Z,100.00
2022-10-23T03:40:30.127Z,100.00
2022-10-23T03:42:57.757Z,100.00
2022-10-23T03:45:25.798Z,100.00
2022-10-23T03:47:53.940Z,100.00
2022-10-23T03:50:23.241Z,100.00
2022-10-23T03:52:51.099Z,100.00
2022-10-23T03:55:19.660Z,100.00
2022-10-23T03:57:47.238Z,100.00
2022-10-23T04:00:16.969Z,100.00
2022-10-23T04:02:44.949Z,100.00
2022-10-23T04:05:13.915Z,100.00
2022-10-23T04:07:44.260Z,100.00
2022-10-23T04:10:11.830Z,100.00
2022-10-23T04:12:39.838Z,100.00
2022-10-23T04:15:09.767Z,100.00
2022-10-23T04:17:39.257Z,100.00
2022-10-23T04:20:07.107Z,100.00
2022-10-23T04:22:35.410Z,100.00
2022-10-23T04:25:04.881Z,100.00
2022-10-23T04:27:34.881Z,100.00
2022-10-23T04:30:02.773Z,100.00
2022-10-23T04:32:30.794Z,100.00
2022-10-23T04:34:58.371Z,100.00
2022-10-23T04:37:26.311Z,100.00
2022-10-23T04:39:54.379Z,100.00
2022-10-23T04:42:23.475Z,100.00
2022-10-23T04:44:51.352Z,100.00
2022-10-23T04:47:18.906Z,100.00
2022-10-23T04:49:46.480Z,100.00
2022-10-23T04:52:14.358Z,100.00
2022-10-23T04:54:41.994Z,100.00
2022-10-23T04:57:09.807Z,100.00
2022-10-23T04:59:38.980Z,100.00
2022-10-23T05:02:07.490Z,100.00
2022-10-23T05:04:35.447Z,100.00
2022-10-23T05:07:03.246Z,100.00
2022-10-23T05:09:32.255Z,100.00
2022-10-23T05:12:02.222Z,100.00
2022-10-23T05:14:30.982Z,100.00
2022-10-23T05:17:07.645Z,100.00
2022-10-23T05:19:40.897Z,100.00
2022-10-23T05:22:09.728Z,100.00
2022-10-23T05:24:39.751Z,100.00
2022-10-23T05:27:07.466Z,100.00
2022-10-23T05:29:35.059Z,100.00
2022-10-23T05:32:06.799Z,100.00
2022-10-23T05:34:36.716Z,100.00
2022-10-23T05:37:07.941Z,100.00
2022-10-23T05:39:36.177Z,100.00
2022-10-23T05:42:04.865Z,100.00
2022-10-23T05:44:32.584Z,100.00
2022-10-23T05:47:00.138Z,100.00
2022-10-23T05:49:29.569Z,100.00
2022-10-23T05:51:57.404Z,100.00
2022-10-23T05:54:25.135Z,100.00
2022-10-23T05:56:52.925Z,100.00
2022-10-23T05:59:23.075Z,100.00
2022-10-23T06:01:51.518Z,100.00
2022-10-23T06:04:19.503Z,100.00
2022-10-23T06:06:51.301Z,100.00
2022-10-23T06:09:18.875Z,100.00
2022-10-23T06:11:47.399Z,100.00
2022-10-23T06:14:16.509Z,100.00
2022-10-23T06:16:46.754Z,100.00
2022-10-23T06:19:14.914Z,100.00
2022-10-23T06:21:42.529Z,100.00
2022-10-23T06:24:11.926Z,100.00
2022-10-23T06:26:39.646Z,100.00
2022-10-23T06:29:08.799Z,100.00
2022-10-23T06:31:36.371Z,100.00
2022-10-23T06:34:04.095Z,100.00
2022-10-23T06:36:32.059Z,100.00
2022-10-23T06:41:33.844Z,100.00
2022-10-23T06:44:01.422Z,100.00
2022-10-23T06:46:29.870Z,100.00
2022-10-23T06:48:57.644Z,100.00
2022-10-23T06:51:25.343Z,100.00
2022-10-23T06:53:53.038Z,100.00
2022-10-23T06:56:21.402Z,100.00
2022-10-23T06:58:51.837Z,100.00
2022-10-23T07:01:19.810Z,100.00
2022-10-23T07:03:49.135Z,100.00
2022-10-23T07:06:17.042Z,100.00
2022-10-23T07:08:47.174Z,100.00
2022-10-23T07:11:14.830Z,100.00
2022-10-23T07:13:42.350Z,100.00
2022-10-23T07:16:13.913Z,100.00
2022-10-23T07:18:47.820Z,100.00
2022-10-23T07:21:15.681Z,100.00
2022-10-23T07:23:43.548Z,100.00
2022-10-23T07:26:13.985Z,100.00
2022-10-23T07:28:42.998Z,100.00
2022-10-23T07:31:12.554Z,100.00
2022-10-23T07:33:40.634Z,100.00
2022-10-23T07:36:10.030Z,100.00
2022-10-23T07:38:37.612Z,100.00
2022-10-23T07:41:08.886Z,100.00
2022-10-23T07:43:39.923Z,100.00
2022-10-23T07:46:07.967Z,100.00
2022-10-23T07:48:37.909Z,100.00
2022-10-23T07:51:07.381Z,100.00
2022-10-23T07:53:35.744Z,100.00
2022-10-23T07:56:10.175Z,100.00
2022-10-23T07:58:38.690Z,100.00
2022-10-23T08:01:16.748Z,100.00
2022-10-23T08:03:46.556Z,100.00
2022-10-23T08:06:14.382Z,100.00
2022-10-23T08:08:42.293Z,100.00
2022-10-23T08:11:14.820Z,100.00
2022-10-23T08:13:42.464Z,100.00
2022-10-23T08:16:10.830Z,100.00
2022-10-23T08:18:38.834Z,100.00
2022-10-23T08:21:10.427Z,100.00
2022-10-23T08:23:38.721Z,100.00
2022-10-23T08:26:07.090Z,100.00
2022-10-23T08:28:35.747Z,100.00
2022-10-23T08:31:09.111Z,100.00
2022-10-23T08:33:37.158Z,100.00
2022-10-23T08:36:06.513Z,100.00
2022-10-23T08:38:35.710Z,100.00
2022-10-23T08:41:03.333Z,100.00
2022-10-23T08:43:37.739Z,100.00
2022-10-23T08:46:12.169Z,100.00
2022-10-23T08:48:45.812Z,100.00
2022-10-23T08:51:18.823Z,100.00
2022-10-23T08:53:54.542Z,100.00
2022-10-23T08:56:25.943Z,100.00
2022-10-23T08:58:57.552Z,100.00
2022-10-23T09:01:37.642Z,100.00
2022-10-23T09:04:06.638Z,100.00
2022-10-23T09:06:41.079Z,100.00
2022-10-23T09:09:35.616Z,100.00
2022-10-23T09:12:11.679Z,100.00
2022-10-23T09:14:56.296Z,100.00
2022-10-23T09:17:26.720Z,100.00
2022-10-23T09:20:00.496Z,100.00
2022-10-23T09:22:29.277Z,100.00
2022-10-23T09:24:58.332Z,100.00
2022-10-23T09:27:26.648Z,100.00
2022-10-23T09:29:56.025Z,100.00
2022-10-23T09:32:34.036Z,100.00
2022-10-23T09:35:02.020Z,100.00
2022-10-23T09:37:33.231Z,100.00
2022-10-23T09:40:17.738Z,100.00
2022-10-23T09:42:54.260Z,100.00
2022-10-23T09:45:25.166Z,100.00
2022-10-23T09:48:04.940Z,100.00
2022-10-23T09:50:32.981Z,100.00
2022-10-23T09:53:00.673Z,100.00
2022-10-23T09:55:30.456Z,100.00
2022-10-23T09:57:58.261Z,100.00
2022-10-23T10:00:27.415Z,100.00
2022-10-23T10:02:57.576Z,100.00
2022-10-23T10:05:27.840Z,100.00
2022-10-23T10:08:03.944Z,100.00
2022-10-23T10:10:39.304Z,100.00
2022-10-23T10:13:24.746Z,100.00
2022-10-23T10:15:58.412Z,100.00
2022-10-23T10:18:35.692Z,100.00
2022-10-23T10:21:14.261Z,100.00
2022-10-23T10:23:47.147Z,100.00
2022-10-23T10:29:08.608Z,100.00
2022-10-23T10:31:50.706Z,99.42
2022-10-23T10:34:28.883Z,98.99
2022-10-23T10:37:06.185Z,97.12
2022-10-23T10:39:43.261Z,97.88
2022-10-23T10:42:47.907Z,95.95
2022-10-23T10:45:19.902Z,96.67
2022-10-23T10:48:00.131Z,96.56
2022-10-23T10:50:34.820Z,97.07
2022-10-23T10:53:14.395Z,94.98
2022-10-23T10:55:43.701Z,95.25
2022-10-23T10:58:18.947Z,94.69
2022-10-23T11:00:53.067Z,95.92
2022-10-23T11:03:32.310Z,94.28
2022-10-23T11:06:06.277Z,94.22
2022-10-23T11:08:49.852Z,93.71
2022-10-23T11:11:33.154Z,94.62
2022-10-23T11:14:02.806Z,91.76
2022-10-23T11:16:36.072Z,90.70
2022-10-23T11:19:14.183Z,91.20
2022-10-23T11:21:47.065Z,91.21
2022-10-23T11:24:42.193Z,93.28
2022-10-23T11:27:31.245Z,91.60
2022-10-23T11:30:18.147Z,90.35
2022-10-23T11:33:28.646Z,89.26
2022-10-23T11:36:06.846Z,88.83
2022-10-23T11:38:37.210Z,87.88
2022-10-23T11:41:07.188Z,88.58
2022-10-23T11:43:46.922Z,90.38
2022-10-23T11:46:30.114Z,92.71
2022-10-23T11:48:58.633Z,91.13
2022-10-23T11:51:28.955Z,89.54
2022-10-23T11:54:22.019Z,91.07
2022-10-23T11:56:56.114Z,92.60
2022-10-23T11:59:28.479Z,93.01
2022-10-23T12:02:00.784Z,93.04
2022-10-23T12:04:38.536Z,94.53
2022-10-23T12:07:22.887Z,93.57
2022-10-23T12:09:55.685Z,92.32
2022-10-23T12:12:30.509Z,91.82
2022-10-23T12:15:18.934Z,93.15
2022-10-23T12:17:50.751Z,93.98
2022-10-23T12:20:24.507Z,93.81
2022-10-23T12:23:03.141Z,94.37
2022-10-23T12:25:39.263Z,94.68
2022-10-23T12:28:14.521Z,95.02
2022-10-23T12:30:47.397Z,95.77
2022-10-23T12:33:25.606Z,95.89
2022-10-23T12:36:18.534Z,95.86
2022-10-23T12:38:47.870Z,95.22
2022-10-23T12:41:19.308Z,94.18
2022-10-23T12:43:51.631Z,94.95
2022-10-23T12:46:30.322Z,95.00
2022-10-23T12:49:01.891Z,95.81
2022-10-23T12:51:32.382Z,96.16
2022-10-23T12:54:00.626Z,96.70
2022-10-23T12:56:35.466Z,97.05
2022-10-23T12:59:05.354Z,97.40
2022-10-23T13:01:34.528Z,98.10
2022-10-23T13:04:12.793Z,97.92
2022-10-23T13:06:40.833Z,97.94
2022-10-23T13:09:20.112Z,98.63
2022-10-23T13:11:47.971Z,98.84
2022-10-23T13:14:31.168Z,98.57
2022-10-23T13:17:07.177Z,98.48
2022-10-23T13:19:37.166Z,99.05
2022-10-23T13:22:15.796Z,99.40
2022-10-23T13:24:44.240Z,98.85
2022-10-23T13:27:26.202Z,98.42
2022-10-23T13:29:54.227Z,98.43
2022-10-23T13:32:24.171Z,98.71
2022-10-23T13:35:03.936Z,99.19
2022-10-23T13:40:22.702Z,99.13
2022-10-23T13:42:51.171Z,99.35
2022-10-23T13:45:20.939Z,99.13
2022-10-23T13:47:48.809Z,99.70
2022-10-23T13:50:18.250Z,99.87
2022-10-23T13:52:46.242Z,100.00
2022-10-23T13:55:23.228Z,100.00
2022-10-23T13:57:51.090Z,100.00
2022-10-23T14:00:19.589Z,100.00
2022-10-23T14:02:47.337Z,100.00
2022-10-23T14:05:15.386Z,100.00
2022-10-23T14:07:47.845Z,100.00
2022-10-23T14:10:15.495Z,100.00
2022-10-23T14:12:46.258Z,100.00
2022-10-23T14:15:14.379Z,100.00
2022-10-23T14:17:43.815Z,100.00
2022-10-23T14:20:12.100Z,100.00
2022-10-23T14:22:44.900Z,100.00
2022-10-23T14:25:15.202Z,100.00
2022-10-23T14:27:44.633Z,100.00
2022-10-23T14:30:13.322Z,100.00
2022-10-23T14:32:41.120Z,100.00
2022-10-23T14:35:09.482Z,100.00
2022-10-23T14:37:37.304Z,100.00
2022-10-23T14:40:06.184Z,100.00
2022-10-23T14:42:35.437Z,100.00
2022-10-23T14:45:04.074Z,100.00
2022-10-23T14:47:31.925Z,100.00
2022-10-23T14:50:00.398Z,100.00
2022-10-23T14:52:28.109Z,100.00
2022-10-23T14:54:55.665Z,100.00
2022-10-23T14:57:23.701Z,100.00
2022-10-23T14:59:52.696Z,100.00
2022-10-23T15:02:22.046Z,100.00
2022-10-23T15:04:49.786Z,100.00
2022-10-23T15:07:17.416Z,100.00
2022-10-23T15:09:45.914Z,100.00
2022-10-23T15:12:14.078Z,100.00
2022-10-23T15:14:42.421Z,100.00
2022-10-23T15:17:15.524Z,100.00
2022-10-23T15:19:44.852Z,100.00
2022-10-23T15:22:12.565Z,100.00
2022-10-23T15:24:40.102Z,100.00
2022-10-23T15:29:40.756Z,100.00
2022-10-23T15:32:10.619Z,100.00
2022-10-23T15:34:40.116Z,100.00
2022-10-23T15:37:07.675Z,100.00
2022-10-23T15:39:36.511Z,100.00
2022-10-23T15:42:06.888Z,100.00
2022-10-23T15:44:34.932Z,100.00
2022-10-23T15:47:02.940Z,100.00
2022-10-23T15:49:30.662Z,100.00
2022-10-23T15:51:59.760Z,100.00
2022-10-23T15:54:30.651Z,100.00
2022-10-23T15:57:01.263Z,100.00
2022-10-23T15:59:30.944Z,100.00
2022-10-23T16:01:59.019Z,100.00
2022-10-23T16:04:26.778Z,100.00
2022-10-23T16:06:54.597Z,100.00
2022-10-23T16:09:23.721Z,100.00
2022-10-23T16:11:51.290Z,100.00
2022-10-23T16:14:18.971Z,100.00
2022-10-23T16:16:46.550Z,100.00
2022-10-23T16:19:14.448Z,100.00
2022-10-23T16:21:43.415Z,100.00
2022-10-23T16:24:11.427Z,100.00
2022-10-23T16:26:41.124Z,100.00
2022-10-23T16:29:09.345Z,100.00
2022-10-23T16:31:37.919Z,100.00
2022-10-23T16:34:05.752Z,100.00
2022-10-23T16:36:34.907Z,100.00
2022-10-23T16:39:03.085Z,100.00
2022-10-23T16:41:31.530Z,100.00
2022-10-23T16:44:00.900Z,100.00
2022-10-23T16:46:28.733Z,100.00
2022-10-23T16:48:56.661Z,100.00
2022-10-23T16:51:26.399Z,100.00
2022-10-23T16:53:54.040Z,100.00
2022-10-23T16:56:24.253Z,100.00
2022-10-23T16:58:52.261Z,100.00
2022-10-23T17:01:24.558Z,100.00
2022-10-23T17:03:53.345Z,100.00
2022-10-23T17:06:23.729Z,100.00
2022-10-23T17:08:52.313Z,100.00
2022-10-23T17:11:22.369Z,100.00
2022-10-23T17:13:55.200Z,100.00
2022-10-23T17:16:29.994Z,100.00
2022-10-23T17:18:58.107Z,100.00
2022-10-23T17:21:25.973Z,100.00
2022-10-23T17:23:53.937Z,100.00
2022-10-23T17:26:22.498Z,100.00
2022-10-23T17:28:50.240Z,100.00
2022-10-23T17:31:22.353Z,100.00
2022-10-23T17:33:53.272Z,100.00
2022-10-23T17:36:21.665Z,100.00
2022-10-23T17:38:50.171Z,100.00
2022-10-23T17:41:20.109Z,100.00
2022-10-23T17:43:47.773Z,100.00
2022-10-23T17:46:16.680Z,100.00
2022-10-23T17:48:44.651Z,100.00
2022-10-23T17:51:16.430Z,100.00
2022-10-23T17:53:44.706Z,100.00
2022-10-23T17:56:14.407Z,100.00
2022-10-23T17:58:42.140Z,100.00
2022-10-23T18:01:12.134Z,100.00
2022-10-23T18:03:40.223Z,100.00
2022-10-23T18:06:08.502Z,100.00
2022-10-23T18:08:41.456Z,100.00
2022-10-23T18:11:15.846Z,100.00
2022-10-23T18:13:43.930Z,100.00
2022-10-23T18:16:12.752Z,100.00
2022-10-23T18:18:41.632Z,100.00
2022-10-23T18:21:09.615Z,100.00
2022-10-23T18:23:37.540Z,100.00
2022-10-23T18:26:13.102Z,100.00
2022-10-23T18:28:40.633Z,100.00
2022-10-23T18:31:10.808Z,100.00
2022-10-23T18:33:39.289Z,100.00
2022-10-23T18:36:13.773Z,100.00
2022-10-23T18:38:41.554Z,100.00
2022-10-23T18:41:10.801Z,100.00
2022-10-23T18:43:43.670Z,100.00
2022-10-23T18:46:12.208Z,100.00
2022-10-23T18:48:40.596Z,100.00
2022-10-23T18:51:15.770Z,100.00
2022-10-23T18:53:44.693Z,100.00
2022-10-23T18:56:14.496Z,100.00
2022-10-23T18:58:42.577Z,100.00
2022-10-23T19:01:10.599Z,100.00
2022-10-23T19:03:39.977Z,100.00
2022-10-23T19:06:08.905Z,100.00
2022-10-23T19:08:40.768Z,100.00
2022-10-23T19:11:10.669Z,100.00
2022-10-23T19:13:41.403Z,100.00
2022-10-23T19:16:13.159Z,100.00
2022-10-23T19:18:42.075Z,100.00
2022-10-23T19:21:10.096Z,100.00
2022-10-23T19:23:40.160Z,100.00
2022-10-23T19:26:09.598Z,100.00
2022-10-23T19:28:38.069Z,100.00
2022-10-23T19:31:08.450Z,100.00
2022-10-23T19:33:37.325Z,100.00
2022-10-23T19:36:08.812Z,100.00
2022-10-23T19:38:39.499Z,100.00
2022-10-23T19:43:53.279Z,100.00
2022-10-23T19:46:22.233Z,100.00
2022-10-23T19:48:49.840Z,100.00
2022-10-23T19:51:17.811Z,100.00
2022-10-23T19:53:45.419Z,100.00
2022-10-23T19:56:13.537Z,100.00
2022-10-23T19:58:41.921Z,100.00
2022-10-23T20:01:12.103Z,100.00
2022-10-23T20:03:43.414Z,100.00
2022-10-23T20:06:12.373Z,100.00
2022-10-23T20:08:41.949Z,100.00
2022-10-23T20:11:10.081Z,100.00
2022-10-23T20:13:37.631Z,100.00
2022-10-23T20:16:08.251Z,100.00
2022-10-23T20:18:36.636Z,100.00
2022-10-23T20:21:06.091Z,100.00
2022-10-23T20:23:34.565Z,100.00
2022-10-23T20:26:06.418Z,100.00
2022-10-23T20:28:35.073Z,100.00
2022-10-23T20:31:06.609Z,100.00
2022-10-23T20:33:35.234Z,100.00
2022-10-23T20:36:03.397Z,100.00
2022-10-23T20:38:34.316Z,100.00
2022-10-23T20:41:02.976Z,100.00
2022-10-23T20:43:32.015Z,100.00
2022-10-23T20:46:04.120Z,100.00
2022-10-23T20:48:34.621Z,100.00
2022-10-23T20:51:03.226Z,100.00
2022-10-23T20:53:31.060Z,100.00
2022-10-23T20:56:00.110Z,100.00
2022-10-23T20:58:27.667Z,100.00
2022-10-23T21:00:55.603Z,100.00
2022-10-23T21:03:23.927Z,100.00
2022-10-23T21:05:51.509Z,100.00
2022-10-23T21:08:19.317Z,100.00
2022-10-23T21:10:47.370Z,100.00
2022-10-23T21:13:16.454Z,100.00
2022-10-23T21:15:44.909Z,100.00
2022-10-23T21:18:26.348Z,100.00
2022-10-23T21:21:00.384Z,100.00
2022-10-23T21:23:29.373Z,100.00
2022-10-23T21:25:56.926Z,100.00
2022-10-23T21:28:26.093Z,100.00
2022-10-23T21:30:53.900Z,100.00
2022-10-23T21:33:21.717Z,100.00
2022-10-23T21:35:58.406Z,100.00
2022-10-23T21:38:26.999Z,100.00
2022-10-23T21:40:54.888Z,100.00
2022-10-23T21:43:22.661Z,100.00
2022-10-23T21:45:54.321Z,100.00
2022-10-23T21:48:23.300Z,100.00
2022-10-23T21:50:57.171Z,100.00
2022-10-23T21:53:25.220Z,100.00
2022-10-23T21:55:53.478Z,100.00
2022-10-23T21:58:21.130Z,100.00
2022-10-23T22:00:48.882Z,100.00
2022-10-23T22:03:17.975Z,100.00
2022-10-23T22:05:45.765Z,100.00
2022-10-23T22:08:13.852Z,100.00
2022-10-23T22:10:42.722Z,100.00
2022-10-23T22:13:10.303Z,100.00
2022-10-23T22:15:40.385Z,100.00
2022-10-23T22:18:07.961Z,100.00
2022-10-23T22:20:39.460Z,100.00
2022-10-23T22:23:07.263Z,100.00
2022-10-23T22:25:38.465Z,100.00
2022-10-23T22:28:06.102Z,100.00
2022-10-23T22:30:36.928Z,100.00
2022-10-23T22:33:04.655Z,100.00
2022-10-23T22:35:32.616Z,100.00
2022-10-23T22:38:01.722Z,100.00
2022-10-23T22:40:29.435Z,100.00
2022-10-23T22:42:57.320Z,100.00
2022-10-23T22:45:25.276Z,100.00
2022-10-23T22:47:52.820Z,100.00
2022-10-23T22:50:20.610Z,100.00
2022-10-23T22:52:48.515Z,100.00
2022-10-23T22:55:17.744Z,100.00
2022-10-23T22:57:47.437Z,100.00
2022-10-23T23:00:17.315Z,100.00
2022-10-23T23:02:44.914Z,100.00
2022-10-23T23:05:12.659Z,100.00
2022-10-23T23:07:40.383Z,100.00
2022-10-23T23:10:08.719Z,100.00
2022-10-23T23:12:37.774Z,100.00
2022-10-23T23:15:06.237Z,100.00
2022-10-23T23:17:33.844Z,100.00
2022-10-23T23:20:01.468Z,100.00
2022-10-23T23:22:29.243Z,100.00
2022-10-23T23:24:56.864Z,100.00
2022-10-23T23:27:24.740Z,100.00
2022-10-23T23:29:57.240Z,100.00
2022-10-23T23:32:24.972Z,100.00
2022-10-23T23:34:52.961Z,100.00
2022-10-23T23:37:20.731Z,100.00
2022-10-23T23:39:48.390Z,100.00
2022-10-23T23:42:16.256Z,100.00
2022-10-23T23:44:55.756Z,100.00
2022-10-23T23:47:31.740Z,100.00
2022-10-23T23:49:59.569Z,100.00
2022-10-23T23:52:27.186Z,100.00
2022-10-23T23:54:55.110Z,100.00
2022-10-23T23:57:22.809Z,100.00
2022-10-23T23:59:50.854Z,100.00
